Terminal Aerodrome Forecast
Issued by NWS

Home | Current Version | Previous Version | Text Only | Print | Product List | Glossary On
Versions: 1 2 3 4 5 6 7 8 9 10 11 12 13 14 15 16 17 18 19 20 21 22
000
FTUS43 KIND 251131
TAFLAF
TAF
KLAF 251131Z 2512/2612 00000KT 6SM BR SCT030 SCT080 BKN250
     FM251400 26005KT P6SM SCT035 SCT080 BKN250
     FM251800 27008KT P6SM VCTS SCT035CB BKN080
     FM260200 31004KT P6SM SCT040 SCT080 BKN250
     FM260700 36003KT 4SM BR SCT030 SCT080 BKN250
      AMD LTD TO CLD VIS AND WIND TIL 251300=

USA.gov is the U.S. government's official web portal to all federal, state and local government web resources and services.